sensor_id;sensor_type;location;lat;lon;timestamp;temperature;humidity
56240;DHT22;42154;51.992;5.896;2022-07-21T00:02:21;22.10;95.70
56240;DHT22;42154;51.992;5.896;2022-07-21T00:04:47;22.00;96.00
56240;DHT22;42154;51.992;5.896;2022-07-21T00:07:12;22.00;96.40
56240;DHT22;42154;51.992;5.896;2022-07-21T00:09:38;21.80;96.60
56240;DHT22;42154;51.992;5.896;2022-07-21T00:12:03;21.70;96.90
56240;DHT22;42154;51.992;5.896;2022-07-21T00:14:29;21.70;96.90
56240;DHT22;42154;51.992;5.896;2022-07-21T00:16:55;21.70;96.80
56240;DHT22;42154;51.992;5.896;2022-07-21T00:19:21;21.80;96.80
56240;DHT22;42154;51.992;5.896;2022-07-21T00:21:46;21.90;96.80
56240;DHT22;42154;51.992;5.896;2022-07-21T00:24:12;21.90;96.60
56240;DHT22;42154;51.992;5.896;2022-07-21T00:26:37;21.90;96.50
56240;DHT22;42154;51.992;5.896;2022-07-21T00:29:03;22.00;96.40
56240;DHT22;42154;51.992;5.896;2022-07-21T00:31:29;21.90;96.40
56240;DHT22;42154;51.992;5.896;2022-07-21T00:33:54;21.90;96.30
56240;DHT22;42154;51.992;5.896;2022-07-21T00:36:20;21.80;96.30
56240;DHT22;42154;51.992;5.896;2022-07-21T00:38:46;21.80;96.30
56240;DHT22;42154;51.992;5.896;2022-07-21T00:41:11;21.80;96.50
56240;DHT22;42154;51.992;5.896;2022-07-21T00:43:37;21.80;96.60
56240;DHT22;42154;51.992;5.896;2022-07-21T00:46:03;21.70;96.70
56240;DHT22;42154;51.992;5.896;2022-07-21T00:48:28;21.70;96.90
56240;DHT22;42154;51.992;5.896;2022-07-21T00:50:54;21.60;97.10
56240;DHT22;42154;51.992;5.896;2022-07-21T00:53:20;21.50;97.60
56240;DHT22;42154;51.992;5.896;2022-07-21T00:55:45;21.50;97.30
56240;DHT22;42154;51.992;5.896;2022-07-21T00:58:12;21.50;97.40
56240;DHT22;42154;51.992;5.896;2022-07-21T01:00:38;21.40;97.50
56240;DHT22;42154;51.992;5.896;2022-07-21T01:03:04;21.30;97.70
56240;DHT22;42154;51.992;5.896;2022-07-21T01:05:30;21.30;98.00
56240;DHT22;42154;51.992;5.896;2022-07-21T01:07:56;21.30;98.00
56240;DHT22;42154;51.992;5.896;2022-07-21T01:10:28;21.30;97.90
56240;DHT22;42154;51.992;5.896;2022-07-21T01:12:54;21.40;97.80
56240;DHT22;42154;51.992;5.896;2022-07-21T01:15:20;21.40;97.90
56240;DHT22;42154;51.992;5.896;2022-07-21T01:17:46;21.40;97.80
56240;DHT22;42154;51.992;5.896;2022-07-21T01:20:12;21.40;97.80
56240;DHT22;42154;51.992;5.896;2022-07-21T01:22:40;21.40;97.80
56240;DHT22;42154;51.992;5.896;2022-07-21T01:25:06;21.40;97.70
56240;DHT22;42154;51.992;5.896;2022-07-21T01:27:32;21.40;97.60
56240;DHT22;42154;51.992;5.896;2022-07-21T01:29:57;21.40;97.60
56240;DHT22;42154;51.992;5.896;2022-07-21T01:32:23;21.30;97.60
56240;DHT22;42154;51.992;5.896;2022-07-21T01:34:49;21.30;97.70
56240;DHT22;42154;51.992;5.896;2022-07-21T01:37:14;21.30;97.70
56240;DHT22;42154;51.992;5.896;2022-07-21T01:39:40;21.20;97.90
56240;DHT22;42154;51.992;5.896;2022-07-21T01:42:24;21.20;97.90
56240;DHT22;42154;51.992;5.896;2022-07-21T01:44:50;21.20;97.90
56240;DHT22;42154;51.992;5.896;2022-07-21T01:47:16;21.20;97.90
56240;DHT22;42154;51.992;5.896;2022-07-21T01:49:43;21.10;97.90
56240;DHT22;42154;51.992;5.896;2022-07-21T01:52:09;21.10;98.00
56240;DHT22;42154;51.992;5.896;2022-07-21T01:54:34;21.10;98.20
56240;DHT22;42154;51.992;5.896;2022-07-21T01:57:00;21.00;98.20
56240;DHT22;42154;51.992;5.896;2022-07-21T01:59:25;21.00;98.40
56240;DHT22;42154;51.992;5.896;2022-07-21T02:01:51;21.00;98.50
56240;DHT22;42154;51.992;5.896;2022-07-21T02:04:17;21.00;98.50
56240;DHT22;42154;51.992;5.896;2022-07-21T02:06:42;21.00;98.30
56240;DHT22;42154;51.992;5.896;2022-07-21T02:09:08;21.00;98.40
56240;DHT22;42154;51.992;5.896;2022-07-21T02:11:34;21.00;98.40
56240;DHT22;42154;51.992;5.896;2022-07-21T02:13:59;21.00;98.40
56240;DHT22;42154;51.992;5.896;2022-07-21T02:16:25;21.00;98.40
56240;DHT22;42154;51.992;5.896;2022-07-21T02:18:51;21.00;98.40
56240;DHT22;42154;51.992;5.896;2022-07-21T02:21:16;20.90;98.50
56240;DHT22;42154;51.992;5.896;2022-07-21T02:23:42;20.90;98.50
56240;DHT22;42154;51.992;5.896;2022-07-21T02:26:08;20.90;98.50
56240;DHT22;42154;51.992;5.896;2022-07-21T02:28:33;20.80;98.50
56240;DHT22;42154;51.992;5.896;2022-07-21T02:30:59;20.80;98.60
56240;DHT22;42154;51.992;5.896;2022-07-21T02:33:24;20.80;98.60
56240;DHT22;42154;51.992;5.896;2022-07-21T02:35:50;20.80;98.60
56240;DHT22;42154;51.992;5.896;2022-07-21T02:38:16;20.70;98.70
56240;DHT22;42154;51.992;5.896;2022-07-21T02:40:41;20.70;98.80
56240;DHT22;42154;51.992;5.896;2022-07-21T02:43:07;20.70;98.70
56240;DHT22;42154;51.992;5.896;2022-07-21T02:45:33;20.70;98.80
56240;DHT22;42154;51.992;5.896;2022-07-21T02:48:00;20.60;98.80
56240;DHT22;42154;51.992;5.896;2022-07-21T02:50:27;20.70;98.90
56240;DHT22;42154;51.992;5.896;2022-07-21T02:52:56;20.70;99.00
56240;DHT22;42154;51.992;5.896;2022-07-21T02:55:22;20.60;99.00
56240;DHT22;42154;51.992;5.896;2022-07-21T02:57:48;20.70;99.00
56240;DHT22;42154;51.992;5.896;2022-07-21T03:00:14;20.60;99.00
56240;DHT22;42154;51.992;5.896;2022-07-21T03:02:40;20.60;99.00
56240;DHT22;42154;51.992;5.896;2022-07-21T03:05:05;20.60;99.10
56240;DHT22;42154;51.992;5.896;2022-07-21T03:07:31;20.60;99.10
56240;DHT22;42154;51.992;5.896;2022-07-21T03:09:57;20.70;99.10
56240;DHT22;42154;51.992;5.896;2022-07-21T03:12:22;20.70;99.10
56240;DHT22;42154;51.992;5.896;2022-07-21T03:14:48;20.70;99.10
56240;DHT22;42154;51.992;5.896;2022-07-21T03:17:13;20.70;99.20
56240;DHT22;42154;51.992;5.896;2022-07-21T03:19:39;20.70;99.20
56240;DHT22;42154;51.992;5.896;2022-07-21T03:22:05;20.70;99.20
56240;DHT22;42154;51.992;5.896;2022-07-21T03:24:30;20.70;99.10
56240;DHT22;42154;51.992;5.896;2022-07-21T03:26:56;20.70;99.10
56240;DHT22;42154;51.992;5.896;2022-07-21T03:29:23;20.70;99.20
56240;DHT22;42154;51.992;5.896;2022-07-21T03:31:48;20.60;99.20
56240;DHT22;42154;51.992;5.896;2022-07-21T03:34:14;20.60;99.20
56240;DHT22;42154;51.992;5.896;2022-07-21T03:36:40;20.60;99.20
56240;DHT22;42154;51.992;5.896;2022-07-21T03:39:05;20.60;99.30
56240;DHT22;42154;51.992;5.896;2022-07-21T03:41:31;20.60;99.30
56240;DHT22;42154;51.992;5.896;2022-07-21T03:43:57;20.60;99.20
56240;DHT22;42154;51.992;5.896;2022-07-21T03:46:22;20.60;99.20
56240;DHT22;42154;51.992;5.896;2022-07-21T03:48:48;20.60;99.20
56240;DHT22;42154;51.992;5.896;2022-07-21T03:51:13;20.60;99.20
56240;DHT22;42154;51.992;5.896;2022-07-21T03:53:39;20.60;99.20
56240;DHT22;42154;51.992;5.896;2022-07-21T03:56:05;20.60;99.20
56240;DHT22;42154;51.992;5.896;2022-07-21T03:58:30;20.60;99.20
56240;DHT22;42154;51.992;5.896;2022-07-21T04:00:56;20.60;99.20
56240;DHT22;42154;51.992;5.896;2022-07-21T04:03:22;20.60;99.20
56240;DHT22;42154;51.992;5.896;2022-07-21T04:05:48;20.60;99.20
56240;DHT22;42154;51.992;5.896;2022-07-21T04:08:14;20.60;99.20
56240;DHT22;42154;51.992;5.896;2022-07-21T04:10:40;20.60;99.30
56240;DHT22;42154;51.992;5.896;2022-07-21T04:13:07;20.60;99.30
56240;DHT22;42154;51.992;5.896;2022-07-21T04:15:34;20.60;99.30
56240;DHT22;42154;51.992;5.896;2022-07-21T04:17:59;20.60;99.30
56240;DHT22;42154;51.992;5.896;2022-07-21T04:20:25;20.60;99.30
56240;DHT22;42154;51.992;5.896;2022-07-21T04:22:51;20.60;99.30
56240;DHT22;42154;51.992;5.896;2022-07-21T04:25:17;20.60;99.60
56240;DHT22;42154;51.992;5.896;2022-07-21T04:27:46;20.60;99.30
56240;DHT22;42154;51.992;5.896;2022-07-21T04:30:17;20.50;99.30
56240;DHT22;42154;51.992;5.896;2022-07-21T04:32:43;20.50;99.40
56240;DHT22;42154;51.992;5.896;2022-07-21T04:35:09;20.50;99.40
56240;DHT22;42154;51.992;5.896;2022-07-21T04:37:35;20.50;99.70
56240;DHT22;42154;51.992;5.896;2022-07-21T04:40:00;20.50;99.40
56240;DHT22;42154;51.992;5.896;2022-07-21T04:42:26;20.40;99.40
56240;DHT22;42154;51.992;5.896;2022-07-21T04:44:52;20.50;99.40
56240;DHT22;42154;51.992;5.896;2022-07-21T04:47:17;20.50;99.40
56240;DHT22;42154;51.992;5.896;2022-07-21T04:49:43;20.50;99.40
56240;DHT22;42154;51.992;5.896;2022-07-21T04:52:08;20.50;99.40
56240;DHT22;42154;51.992;5.896;2022-07-21T04:54:34;20.50;99.40
56240;DHT22;42154;51.992;5.896;2022-07-21T04:57:00;20.50;99.40
56240;DHT22;42154;51.992;5.896;2022-07-21T04:59:29;20.50;99.40
56240;DHT22;42154;51.992;5.896;2022-07-21T05:01:56;20.50;99.70
56240;DHT22;42154;51.992;5.896;2022-07-21T05:04:21;20.40;99.30
56240;DHT22;42154;51.992;5.896;2022-07-21T05:06:47;20.40;99.40
56240;DHT22;42154;51.992;5.896;2022-07-21T05:09:12;20.40;99.40
56240;DHT22;42154;51.992;5.896;2022-07-21T05:11:38;20.40;99.50
56240;DHT22;42154;51.992;5.896;2022-07-21T05:14:04;20.30;99.50
56240;DHT22;42154;51.992;5.896;2022-07-21T05:16:30;20.30;99.50
56240;DHT22;42154;51.992;5.896;2022-07-21T05:18:55;20.30;99.60
56240;DHT22;42154;51.992;5.896;2022-07-21T05:21:21;20.30;99.60
56240;DHT22;42154;51.992;5.896;2022-07-21T05:23:46;20.30;99.80
56240;DHT22;42154;51.992;5.896;2022-07-21T05:26:12;20.30;99.80
56240;DHT22;42154;51.992;5.896;2022-07-21T05:28:38;20.30;99.80
56240;DHT22;42154;51.992;5.896;2022-07-21T05:31:04;20.30;99.80
56240;DHT22;42154;51.992;5.896;2022-07-21T05:33:30;20.30;99.80
56240;DHT22;42154;51.992;5.896;2022-07-21T05:35:55;20.30;99.70
56240;DHT22;42154;51.992;5.896;2022-07-21T05:38:21;20.40;99.80
56240;DHT22;42154;51.992;5.896;2022-07-21T05:40:47;20.40;99.80
56240;DHT22;42154;51.992;5.896;2022-07-21T05:43:12;20.40;99.80
56240;DHT22;42154;51.992;5.896;2022-07-21T05:45:38;20.40;99.80
56240;DHT22;42154;51.992;5.896;2022-07-21T05:48:04;20.40;99.90
56240;DHT22;42154;51.992;5.896;2022-07-21T05:50:30;20.40;99.90
56240;DHT22;42154;51.992;5.896;2022-07-21T05:52:55;20.40;99.90
56240;DHT22;42154;51.992;5.896;2022-07-21T05:55:21;20.40;99.90
56240;DHT22;42154;51.992;5.896;2022-07-21T05:57:46;20.40;99.90
56240;DHT22;42154;51.992;5.896;2022-07-21T06:00:13;20.40;99.90
56240;DHT22;42154;51.992;5.896;2022-07-21T06:02:38;20.40;99.90
56240;DHT22;42154;51.992;5.896;2022-07-21T06:05:04;20.40;99.90
56240;DHT22;42154;51.992;5.896;2022-07-21T06:07:32;20.40;99.90
56240;DHT22;42154;51.992;5.896;2022-07-21T06:09:58;20.30;99.90
56240;DHT22;42154;51.992;5.896;2022-07-21T06:12:25;20.30;99.90
56240;DHT22;42154;51.992;5.896;2022-07-21T06:14:51;20.30;99.90
56240;DHT22;42154;51.992;5.896;2022-07-21T06:17:17;20.40;99.90
56240;DHT22;42154;51.992;5.896;2022-07-21T06:19:42;20.40;99.90
56240;DHT22;42154;51.992;5.896;2022-07-21T06:22:08;20.50;99.90
56240;DHT22;42154;51.992;5.896;2022-07-21T06:24:33;20.50;99.70
56240;DHT22;42154;51.992;5.896;2022-07-21T06:26:59;20.60;99.50
56240;DHT22;42154;51.992;5.896;2022-07-21T06:29:25;20.60;99.50
56240;DHT22;42154;51.992;5.896;2022-07-21T06:31:51;20.60;99.50
56240;DHT22;42154;51.992;5.896;2022-07-21T06:34:16;20.70;99.40
56240;DHT22;42154;51.992;5.896;2022-07-21T06:36:42;20.80;99.20
56240;DHT22;42154;51.992;5.896;2022-07-21T06:39:08;20.90;99.20
56240;DHT22;42154;51.992;5.896;2022-07-21T06:41:33;21.00;99.00
56240;DHT22;42154;51.992;5.896;2022-07-21T06:43:59;21.10;98.80
56240;DHT22;42154;51.992;5.896;2022-07-21T06:46:25;21.20;98.70
56240;DHT22;42154;51.992;5.896;2022-07-21T06:48:50;21.40;98.40
56240;DHT22;42154;51.992;5.896;2022-07-21T06:51:16;21.50;98.30
56240;DHT22;42154;51.992;5.896;2022-07-21T06:53:42;21.60;98.10
56240;DHT22;42154;51.992;5.896;2022-07-21T06:56:08;21.70;97.90
56240;DHT22;42154;51.992;5.896;2022-07-21T06:58:34;21.70;97.80
56240;DHT22;42154;51.992;5.896;2022-07-21T07:01:00;21.70;97.70
56240;DHT22;42154;51.992;5.896;2022-07-21T07:03:26;21.70;97.70
56240;DHT22;42154;51.992;5.896;2022-07-21T07:05:51;21.70;97.60
56240;DHT22;42154;51.992;5.896;2022-07-21T07:08:17;21.80;97.60
56240;DHT22;42154;51.992;5.896;2022-07-21T07:10:43;21.80;97.40
56240;DHT22;42154;51.992;5.896;2022-07-21T07:13:09;21.80;97.50
56240;DHT22;42154;51.992;5.896;2022-07-21T07:15:35;21.70;97.40
56240;DHT22;42154;51.992;5.896;2022-07-21T07:18:01;21.70;97.50
56240;DHT22;42154;51.992;5.896;2022-07-21T07:20:27;21.60;97.50
56240;DHT22;42154;51.992;5.896;2022-07-21T07:22:52;21.50;97.60
56240;DHT22;42154;51.992;5.896;2022-07-21T07:25:18;21.50;97.70
56240;DHT22;42154;51.992;5.896;2022-07-21T07:27:44;21.40;97.80
56240;DHT22;42154;51.992;5.896;2022-07-21T07:30:10;21.40;97.80
56240;DHT22;42154;51.992;5.896;2022-07-21T07:32:36;21.40;97.80
56240;DHT22;42154;51.992;5.896;2022-07-21T07:35:02;21.30;97.80
56240;DHT22;42154;51.992;5.896;2022-07-21T07:37:28;21.30;97.80
56240;DHT22;42154;51.992;5.896;2022-07-21T07:39:53;21.30;97.80
56240;DHT22;42154;51.992;5.896;2022-07-21T07:42:19;21.30;97.80
56240;DHT22;42154;51.992;5.896;2022-07-21T07:44:44;21.30;97.80
56240;DHT22;42154;51.992;5.896;2022-07-21T07:47:11;21.40;97.80
56240;DHT22;42154;51.992;5.896;2022-07-21T07:49:37;21.40;97.80
56240;DHT22;42154;51.992;5.896;2022-07-21T07:52:04;21.50;98.00
56240;DHT22;42154;51.992;5.896;2022-07-21T07:54:30;21.50;97.50
56240;DHT22;42154;51.992;5.896;2022-07-21T07:56:56;21.50;97.50
56240;DHT22;42154;51.992;5.896;2022-07-21T07:59:22;21.50;97.40
56240;DHT22;42154;51.992;5.896;2022-07-21T08:01:47;21.60;97.50
56240;DHT22;42154;51.992;5.896;2022-07-21T08:04:13;21.60;97.50
56240;DHT22;42154;51.992;5.896;2022-07-21T08:06:40;21.70;97.40
56240;DHT22;42154;51.992;5.896;2022-07-21T08:09:06;21.70;97.30
56240;DHT22;42154;51.992;5.896;2022-07-21T08:11:32;21.70;97.10
56240;DHT22;42154;51.992;5.896;2022-07-21T08:13:58;21.70;97.20
56240;DHT22;42154;51.992;5.896;2022-07-21T08:16:23;21.70;97.10
56240;DHT22;42154;51.992;5.896;2022-07-21T08:18:49;21.70;97.00
56240;DHT22;42154;51.992;5.896;2022-07-21T08:21:14;21.70;96.90
56240;DHT22;42154;51.992;5.896;2022-07-21T08:23:40;21.70;96.90
56240;DHT22;42154;51.992;5.896;2022-07-21T08:26:06;21.70;96.90
56240;DHT22;42154;51.992;5.896;2022-07-21T08:28:31;21.80;96.80
56240;DHT22;42154;51.992;5.896;2022-07-21T08:30:57;21.80;96.80
56240;DHT22;42154;51.992;5.896;2022-07-21T08:33:23;21.80;96.80
56240;DHT22;42154;51.992;5.896;2022-07-21T08:35:48;21.90;96.80
56240;DHT22;42154;51.992;5.896;2022-07-21T08:38:14;22.00;96.60
56240;DHT22;42154;51.992;5.896;2022-07-21T08:40:41;22.10;96.50
56240;DHT22;42154;51.992;5.896;2022-07-21T08:43:07;22.10;96.70
56240;DHT22;42154;51.992;5.896;2022-07-21T08:45:34;22.20;96.40
56240;DHT22;42154;51.992;5.896;2022-07-21T08:48:00;22.10;96.30
56240;DHT22;42154;51.992;5.896;2022-07-21T08:50:27;22.10;96.60
56240;DHT22;42154;51.992;5.896;2022-07-21T08:52:53;22.10;96.30
56240;DHT22;42154;51.992;5.896;2022-07-21T08:55:19;22.10;96.40
56240;DHT22;42154;51.992;5.896;2022-07-21T08:57:44;22.10;96.50
56240;DHT22;42154;51.992;5.896;2022-07-21T09:00:10;22.00;96.50
56240;DHT22;42154;51.992;5.896;2022-07-21T09:02:36;21.90;96.50
56240;DHT22;42154;51.992;5.896;2022-07-21T09:05:03;21.90;96.60
56240;DHT22;42154;51.992;5.896;2022-07-21T09:07:31;21.90;96.70
56240;DHT22;42154;51.992;5.896;2022-07-21T09:10:11;21.80;96.80
56240;DHT22;42154;51.992;5.896;2022-07-21T09:12:47;21.80;96.90
56240;DHT22;42154;51.992;5.896;2022-07-21T09:15:13;21.70;97.00
56240;DHT22;42154;51.992;5.896;2022-07-21T09:17:39;21.60;97.10
56240;DHT22;42154;51.992;5.896;2022-07-21T09:20:10;21.50;97.20
56240;DHT22;42154;51.992;5.896;2022-07-21T09:23:00;21.50;97.30
56240;DHT22;42154;51.992;5.896;2022-07-21T09:25:36;21.50;97.60
56240;DHT22;42154;51.992;5.896;2022-07-21T09:28:06;21.40;97.70
56240;DHT22;42154;51.992;5.896;2022-07-21T09:30:46;21.40;97.80
56240;DHT22;42154;51.992;5.896;2022-07-21T09:33:19;21.30;98.00
56240;DHT22;42154;51.992;5.896;2022-07-21T09:35:55;21.30;98.10
56240;DHT22;42154;51.992;5.896;2022-07-21T09:38:22;21.20;98.20
56240;DHT22;42154;51.992;5.896;2022-07-21T09:40:48;21.20;98.30
56240;DHT22;42154;51.992;5.896;2022-07-21T09:45:54;21.10;98.70
56240;DHT22;42154;51.992;5.896;2022-07-21T09:48:30;21.00;98.90
56240;DHT22;42154;51.992;5.896;2022-07-21T09:50:55;20.90;99.20
56240;DHT22;42154;51.992;5.896;2022-07-21T09:53:21;20.80;99.20
56240;DHT22;42154;51.992;5.896;2022-07-21T09:55:47;20.80;99.30
56240;DHT22;42154;51.992;5.896;2022-07-21T09:58:12;20.90;99.50
56240;DHT22;42154;51.992;5.896;2022-07-21T10:00:39;20.90;99.50
56240;DHT22;42154;51.992;5.896;2022-07-21T10:03:05;20.90;99.50
56240;DHT22;42154;51.992;5.896;2022-07-21T10:05:31;20.90;99.60
56240;DHT22;42154;51.992;5.896;2022-07-21T10:07:56;20.90;99.60
56240;DHT22;42154;51.992;5.896;2022-07-21T10:10:22;20.90;99.70
56240;DHT22;42154;51.992;5.896;2022-07-21T10:12:48;20.90;99.70
56240;DHT22;42154;51.992;5.896;2022-07-21T10:15:15;20.80;99.80
56240;DHT22;42154;51.992;5.896;2022-07-21T10:17:41;20.80;99.90
56240;DHT22;42154;51.992;5.896;2022-07-21T10:20:08;20.80;99.90
56240;DHT22;42154;51.992;5.896;2022-07-21T10:25:05;20.70;99.90
56240;DHT22;42154;51.992;5.896;2022-07-21T10:27:31;20.70;99.90
56240;DHT22;42154;51.992;5.896;2022-07-21T10:29:58;20.70;99.90
56240;DHT22;42154;51.992;5.896;2022-07-21T10:32:30;20.80;99.90
56240;DHT22;42154;51.992;5.896;2022-07-21T10:34:57;20.80;99.90
56240;DHT22;42154;51.992;5.896;2022-07-21T10:40:05;20.80;99.90
56240;DHT22;42154;51.992;5.896;2022-07-21T10:42:30;20.70;99.90
56240;DHT22;42154;51.992;5.896;2022-07-21T10:44:56;20.70;99.90
56240;DHT22;42154;51.992;5.896;2022-07-21T10:47:22;20.70;99.90
56240;DHT22;42154;51.992;5.896;2022-07-21T10:50:00;20.70;99.90
56240;DHT22;42154;51.992;5.896;2022-07-21T10:57:35;20.70;99.90
56240;DHT22;42154;51.992;5.896;2022-07-21T11:02:50;20.70;99.90
56240;DHT22;42154;51.992;5.896;2022-07-21T11:05:16;20.70;99.90
56240;DHT22;42154;51.992;5.896;2022-07-21T11:10:26;20.60;99.90
56240;DHT22;42154;51.992;5.896;2022-07-21T11:12:55;20.60;99.90
56240;DHT22;42154;51.992;5.896;2022-07-21T11:18:06;20.60;99.90
56240;DHT22;42154;51.992;5.896;2022-07-21T11:20:33;20.60;99.90
56240;DHT22;42154;51.992;5.896;2022-07-21T11:22:58;20.60;99.90
56240;DHT22;42154;51.992;5.896;2022-07-21T11:25:29;20.60;99.90
56240;DHT22;42154;51.992;5.896;2022-07-21T11:27:55;20.60;99.90
56240;DHT22;42154;51.992;5.896;2022-07-21T11:30:20;20.70;99.90
56240;DHT22;42154;51.992;5.896;2022-07-21T11:32:46;20.70;99.90
56240;DHT22;42154;51.992;5.896;2022-07-21T11:35:13;20.70;99.90
56240;DHT22;42154;51.992;5.896;2022-07-21T11:37:39;20.70;99.90
56240;DHT22;42154;51.992;5.896;2022-07-21T11:40:06;20.80;99.90
56240;DHT22;42154;51.992;5.896;2022-07-21T11:42:33;20.80;99.90
56240;DHT22;42154;51.992;5.896;2022-07-21T11:44:59;20.90;99.90
56240;DHT22;42154;51.992;5.896;2022-07-21T11:47:25;21.00;99.90
56240;DHT22;42154;51.992;5.896;2022-07-21T11:49:53;21.00;99.90
56240;DHT22;42154;51.992;5.896;2022-07-21T11:52:23;21.10;99.90
56240;DHT22;42154;51.992;5.896;2022-07-21T11:54:51;21.10;99.90
56240;DHT22;42154;51.992;5.896;2022-07-21T11:57:18;21.00;99.90
56240;DHT22;42154;51.992;5.896;2022-07-21T11:59:44;21.00;99.90
56240;DHT22;42154;51.992;5.896;2022-07-21T12:04:38;20.80;99.90
56240;DHT22;42154;51.992;5.896;2022-07-21T12:07:05;20.70;99.90
56240;DHT22;42154;51.992;5.896;2022-07-21T12:09:32;20.70;99.90
56240;DHT22;42154;51.992;5.896;2022-07-21T12:11:58;20.70;99.90
56240;DHT22;42154;51.992;5.896;2022-07-21T12:17:04;20.70;99.90
56240;DHT22;42154;51.992;5.896;2022-07-21T12:19:30;20.80;99.90
56240;DHT22;42154;51.992;5.896;2022-07-21T12:21:56;20.80;99.90
56240;DHT22;42154;51.992;5.896;2022-07-21T12:24:21;20.90;99.90
56240;DHT22;42154;51.992;5.896;2022-07-21T12:26:47;20.90;99.90
56240;DHT22;42154;51.992;5.896;2022-07-21T12:29:29;20.90;99.90
56240;DHT22;42154;51.992;5.896;2022-07-21T12:31:54;20.80;99.90
56240;DHT22;42154;51.992;5.896;2022-07-21T12:34:20;20.80;99.90
56240;DHT22;42154;51.992;5.896;2022-07-21T12:36:46;20.80;99.90
56240;DHT22;42154;51.992;5.896;2022-07-21T12:39:22;20.80;99.90
56240;DHT22;42154;51.992;5.896;2022-07-21T12:42:07;20.90;99.90
56240;DHT22;42154;51.992;5.896;2022-07-21T12:44:33;21.00;99.90
56240;DHT22;42154;51.992;5.896;2022-07-21T12:47:13;21.00;99.80
56240;DHT22;42154;51.992;5.896;2022-07-21T12:49:55;21.10;99.80
56240;DHT22;42154;51.992;5.896;2022-07-21T12:52:22;21.10;99.60
56240;DHT22;42154;51.992;5.896;2022-07-21T12:54:48;21.20;99.50
56240;DHT22;42154;51.992;5.896;2022-07-21T12:57:13;21.20;99.60
56240;DHT22;42154;51.992;5.896;2022-07-21T12:59:39;21.20;99.60
56240;DHT22;42154;51.992;5.896;2022-07-21T13:02:05;21.10;99.50
56240;DHT22;42154;51.992;5.896;2022-07-21T13:04:30;21.10;99.60
56240;DHT22;42154;51.992;5.896;2022-07-21T13:06:56;21.00;99.70
56240;DHT22;42154;51.992;5.896;2022-07-21T13:09:22;21.00;99.70
56240;DHT22;42154;51.992;5.896;2022-07-21T13:11:48;21.00;99.80
56240;DHT22;42154;51.992;5.896;2022-07-21T13:14:13;21.00;99.80
56240;DHT22;42154;51.992;5.896;2022-07-21T13:16:39;20.90;99.80
56240;DHT22;42154;51.992;5.896;2022-07-21T13:19:04;20.90;99.90
56240;DHT22;42154;51.992;5.896;2022-07-21T13:21:30;20.90;99.90
56240;DHT22;42154;51.992;5.896;2022-07-21T13:23:56;20.90;99.90
56240;DHT22;42154;51.992;5.896;2022-07-21T13:26:22;20.90;99.90
56240;DHT22;42154;51.992;5.896;2022-07-21T13:28:47;20.90;99.90
56240;DHT22;42154;51.992;5.896;2022-07-21T13:31:14;20.80;99.90
56240;DHT22;42154;51.992;5.896;2022-07-21T13:33:39;20.80;99.90
56240;DHT22;42154;51.992;5.896;2022-07-21T13:36:05;20.90;99.90
56240;DHT22;42154;51.992;5.896;2022-07-21T13:38:31;21.00;99.90
56240;DHT22;42154;51.992;5.896;2022-07-21T13:40:57;21.00;99.90
56240;DHT22;42154;51.992;5.896;2022-07-21T13:43:23;21.10;99.80
56240;DHT22;42154;51.992;5.896;2022-07-21T13:45:49;21.20;99.70
56240;DHT22;42154;51.992;5.896;2022-07-21T13:48:14;21.30;99.60
56240;DHT22;42154;51.992;5.896;2022-07-21T13:50:40;21.40;99.60
56240;DHT22;42154;51.992;5.896;2022-07-21T13:53:06;21.40;99.60
56240;DHT22;42154;51.992;5.896;2022-07-21T13:55:31;21.40;99.60
56240;DHT22;42154;51.992;5.896;2022-07-21T13:57:57;21.30;99.60
56240;DHT22;42154;51.992;5.896;2022-07-21T14:00:23;21.20;99.60
56240;DHT22;42154;51.992;5.896;2022-07-21T14:02:48;21.20;99.60
56240;DHT22;42154;51.992;5.896;2022-07-21T14:05:14;21.10;99.60
56240;DHT22;42154;51.992;5.896;2022-07-21T14:07:39;21.10;99.70
56240;DHT22;42154;51.992;5.896;2022-07-21T14:10:05;21.10;99.80
56240;DHT22;42154;51.992;5.896;2022-07-21T14:12:31;21.20;99.70
56240;DHT22;42154;51.992;5.896;2022-07-21T14:14:57;21.30;99.70
56240;DHT22;42154;51.992;5.896;2022-07-21T14:17:22;21.30;99.60
56240;DHT22;42154;51.992;5.896;2022-07-21T14:19:48;21.30;99.60
56240;DHT22;42154;51.992;5.896;2022-07-21T14:22:14;21.40;99.60
56240;DHT22;42154;51.992;5.896;2022-07-21T14:24:40;21.40;99.60
56240;DHT22;42154;51.992;5.896;2022-07-21T14:27:24;21.50;99.60
56240;DHT22;42154;51.992;5.896;2022-07-21T14:29:50;21.60;99.50
56240;DHT22;42154;51.992;5.896;2022-07-21T14:32:19;21.70;99.50
56240;DHT22;42154;51.992;5.896;2022-07-21T14:34:50;21.90;99.30
56240;DHT22;42154;51.992;5.896;2022-07-21T14:37:16;21.90;99.10
56240;DHT22;42154;51.992;5.896;2022-07-21T14:39:44;21.90;99.10
56240;DHT22;42154;51.992;5.896;2022-07-21T14:42:10;21.80;99.00
56240;DHT22;42154;51.992;5.896;2022-07-21T14:44:35;21.70;99.20
56240;DHT22;42154;51.992;5.896;2022-07-21T14:47:01;21.60;99.20
56240;DHT22;42154;51.992;5.896;2022-07-21T14:49:27;21.60;99.30
56240;DHT22;42154;51.992;5.896;2022-07-21T14:51:52;21.80;99.30
56240;DHT22;42154;51.992;5.896;2022-07-21T14:54:18;21.90;99.00
56240;DHT22;42154;51.992;5.896;2022-07-21T14:56:43;22.00;98.90
56240;DHT22;42154;51.992;5.896;2022-07-21T14:59:11;22.10;98.70
56240;DHT22;42154;51.992;5.896;2022-07-21T15:01:37;22.10;98.60
56240;DHT22;42154;51.992;5.896;2022-07-21T15:04:02;22.00;98.50
56240;DHT22;42154;51.992;5.896;2022-07-21T15:06:28;21.90;98.60
56240;DHT22;42154;51.992;5.896;2022-07-21T15:08:53;21.90;98.70
56240;DHT22;42154;51.992;5.896;2022-07-21T15:11:19;22.00;98.70
56240;DHT22;42154;51.992;5.896;2022-07-21T15:13:45;21.90;98.70
56240;DHT22;42154;51.992;5.896;2022-07-21T15:16:11;21.80;98.80
56240;DHT22;42154;51.992;5.896;2022-07-21T15:18:36;21.70;99.00
56240;DHT22;42154;51.992;5.896;2022-07-21T15:21:02;21.50;99.20
56240;DHT22;42154;51.992;5.896;2022-07-21T15:23:28;21.40;99.40
56240;DHT22;42154;51.992;5.896;2022-07-21T15:25:53;21.40;99.50
56240;DHT22;42154;51.992;5.896;2022-07-21T15:28:19;21.40;99.80
56240;DHT22;42154;51.992;5.896;2022-07-21T15:30:44;21.50;99.70
56240;DHT22;42154;51.992;5.896;2022-07-21T15:33:11;21.60;99.60
56240;DHT22;42154;51.992;5.896;2022-07-21T15:35:36;21.60;99.60
56240;DHT22;42154;51.992;5.896;2022-07-21T15:38:02;21.60;99.60
56240;DHT22;42154;51.992;5.896;2022-07-21T15:40:28;21.50;99.60
56240;DHT22;42154;51.992;5.896;2022-07-21T15:42:53;21.50;99.90
56240;DHT22;42154;51.992;5.896;2022-07-21T15:45:19;21.50;99.60
56240;DHT22;42154;51.992;5.896;2022-07-21T15:47:45;21.50;99.60
56240;DHT22;42154;51.992;5.896;2022-07-21T15:50:10;21.50;99.60
56240;DHT22;42154;51.992;5.896;2022-07-21T15:52:36;21.40;99.70